sensor_id;sensor_type;location;lat;lon;timestamp;P1;durP1;ratioP1;P2;durP2;ratioP2
55647;SDS011;45266;48.756;9.246;2022-11-30T00:00:11;38.27;;;23.77;;
55647;SDS011;45266;48.756;9.246;2022-11-30T00:01:28;40.97;;;24.23;;
55647;SDS011;45266;48.756;9.246;2022-11-30T00:02:33;39.43;;;24.57;;
55647;SDS011;45266;48.756;9.246;2022-11-30T00:03:41;39.63;;;23.83;;
55647;SDS011;45266;48.756;9.246;2022-11-30T00:04:57;41.87;;;24.67;;
55647;SDS011;45266;48.756;9.246;2022-11-30T00:06:25;37.30;;;24.03;;
55647;SDS011;45266;48.756;9.246;2022-11-30T00:07:49;36.40;;;22.80;;
55647;SDS011;45266;48.756;9.246;2022-11-30T00:09:07;40.47;;;23.07;;
55647;SDS011;45266;48.756;9.246;2022-11-30T00:10:31;42.70;;;24.17;;
55647;SDS011;45266;48.756;9.246;2022-11-30T00:11:58;42.27;;;23.60;;
55647;SDS011;45266;48.756;9.246;2022-11-30T00:13:33;39.03;;;24.57;;
55647;SDS011;45266;48.756;9.246;2022-11-30T00:14:41;42.03;;;25.13;;
55647;SDS011;45266;48.756;9.246;2022-11-30T00:15:58;40.90;;;23.87;;
55647;SDS011;45266;48.756;9.246;2022-11-30T00:17:27;39.73;;;24.63;;
55647;SDS011;45266;48.756;9.246;2022-11-30T00:18:41;40.93;;;23.83;;
55647;SDS011;45266;48.756;9.246;2022-11-30T00:20:04;43.07;;;24.20;;
55647;SDS011;45266;48.756;9.246;2022-11-30T00:21:14;41.40;;;25.43;;
55647;SDS011;45266;48.756;9.246;2022-11-30T00:22:49;41.80;;;24.57;;
55647;SDS011;45266;48.756;9.246;2022-11-30T00:24:04;42.10;;;25.33;;
55647;SDS011;45266;48.756;9.246;2022-11-30T00:25:31;38.73;;;24.27;;
55647;SDS011;45266;48.756;9.246;2022-11-30T00:26:40;38.23;;;24.80;;
55647;SDS011;45266;48.756;9.246;2022-11-30T00:27:45;41.63;;;24.10;;
55647;SDS011;45266;48.756;9.246;2022-11-30T00:28:57;40.33;;;24.53;;
55647;SDS011;45266;48.756;9.246;2022-11-30T00:30:17;42.63;;;24.70;;
55647;SDS011;45266;48.756;9.246;2022-11-30T00:31:31;43.00;;;25.57;;
55647;SDS011;45266;48.756;9.246;2022-11-30T00:33:09;41.83;;;24.23;;
55647;SDS011;45266;48.756;9.246;2022-11-30T00:34:18;44.07;;;24.90;;
55647;SDS011;45266;48.756;9.246;2022-11-30T00:37:29;39.40;;;24.13;;
55647;SDS011;45266;48.756;9.246;2022-11-30T00:38:50;39.57;;;23.00;;
55647;SDS011;45266;48.756;9.246;2022-11-30T00:40:25;41.87;;;24.30;;
55647;SDS011;45266;48.756;9.246;2022-11-30T00:42:01;43.90;;;24.43;;
55647;SDS011;45266;48.756;9.246;2022-11-30T00:43:23;39.87;;;23.97;;
55647;SDS011;45266;48.756;9.246;2022-11-30T00:44:54;42.33;;;24.00;;
55647;SDS011;45266;48.756;9.246;2022-11-30T00:46:15;40.47;;;25.33;;
55647;SDS011;45266;48.756;9.246;2022-11-30T00:47:32;42.80;;;25.63;;
55647;SDS011;45266;48.756;9.246;2022-11-30T00:48:50;46.13;;;24.67;;
55647;SDS011;45266;48.756;9.246;2022-11-30T00:50:05;38.73;;;23.87;;
55647;SDS011;45266;48.756;9.246;2022-11-30T00:51:32;44.43;;;25.13;;
55647;SDS011;45266;48.756;9.246;2022-11-30T00:52:46;43.93;;;25.90;;
55647;SDS011;45266;48.756;9.246;2022-11-30T00:53:58;43.50;;;26.23;;
55647;SDS011;45266;48.756;9.246;2022-11-30T00:55:24;43.13;;;25.40;;
55647;SDS011;45266;48.756;9.246;2022-11-30T00:56:34;40.00;;;24.20;;
55647;SDS011;45266;48.756;9.246;2022-11-30T00:57:46;42.93;;;24.43;;
55647;SDS011;45266;48.756;9.246;2022-11-30T00:59:01;37.63;;;24.20;;
55647;SDS011;45266;48.756;9.246;2022-11-30T01:00:19;42.73;;;25.43;;
55647;SDS011;45266;48.756;9.246;2022-11-30T01:01:42;39.83;;;22.63;;
55647;SDS011;45266;48.756;9.246;2022-11-30T01:03:06;38.23;;;23.73;;
55647;SDS011;45266;48.756;9.246;2022-11-30T01:04:15;36.47;;;22.30;;
55647;SDS011;45266;48.756;9.246;2022-11-30T01:05:41;38.38;;;22.90;;
55647;SDS011;45266;48.756;9.246;2022-11-30T01:06:55;38.87;;;23.90;;
55647;SDS011;45266;48.756;9.246;2022-11-30T01:08:18;39.97;;;24.17;;
55647;SDS011;45266;48.756;9.246;2022-11-30T01:09:31;43.83;;;25.30;;
55647;SDS011;45266;48.756;9.246;2022-11-30T01:10:41;39.67;;;23.93;;
55647;SDS011;45266;48.756;9.246;2022-11-30T01:12:12;39.23;;;24.23;;
55647;SDS011;45266;48.756;9.246;2022-11-30T01:13:41;38.27;;;23.63;;
55647;SDS011;45266;48.756;9.246;2022-11-30T01:15:08;37.90;;;22.93;;
55647;SDS011;45266;48.756;9.246;2022-11-30T01:16:40;38.17;;;23.03;;
55647;SDS011;45266;48.756;9.246;2022-11-30T01:18:02;37.65;;;23.42;;
55647;SDS011;45266;48.756;9.246;2022-11-30T01:19:16;37.47;;;23.00;;
55647;SDS011;45266;48.756;9.246;2022-11-30T01:21:07;39.27;;;23.20;;
55647;SDS011;45266;48.756;9.246;2022-11-30T01:22:28;36.47;;;22.47;;
55647;SDS011;45266;48.756;9.246;2022-11-30T01:23:42;38.90;;;23.53;;
55647;SDS011;45266;48.756;9.246;2022-11-30T01:24:59;35.67;;;22.20;;
55647;SDS011;45266;48.756;9.246;2022-11-30T01:26:16;39.87;;;24.17;;
55647;SDS011;45266;48.756;9.246;2022-11-30T01:27:40;41.60;;;23.40;;
55647;SDS011;45266;48.756;9.246;2022-11-30T01:28:51;39.17;;;23.33;;
55647;SDS011;45266;48.756;9.246;2022-11-30T01:30:34;38.97;;;23.83;;
55647;SDS011;45266;48.756;9.246;2022-11-30T01:32:03;43.40;;;23.80;;
55647;SDS011;45266;48.756;9.246;2022-11-30T01:33:11;37.77;;;22.67;;
55647;SDS011;45266;48.756;9.246;2022-11-30T01:34:25;39.93;;;23.57;;
55647;SDS011;45266;48.756;9.246;2022-11-30T01:36:00;39.57;;;23.37;;
55647;SDS011;45266;48.756;9.246;2022-11-30T01:37:12;40.10;;;23.57;;
55647;SDS011;45266;48.756;9.246;2022-11-30T01:38:25;38.88;;;23.10;;
55647;SDS011;45266;48.756;9.246;2022-11-30T01:39:43;39.10;;;23.63;;
55647;SDS011;45266;48.756;9.246;2022-11-30T01:41:07;38.60;;;22.93;;
55647;SDS011;45266;48.756;9.246;2022-11-30T01:42:22;40.30;;;23.93;;
55647;SDS011;45266;48.756;9.246;2022-11-30T01:43:50;37.17;;;23.07;;
55647;SDS011;45266;48.756;9.246;2022-11-30T01:45:10;37.40;;;22.30;;
55647;SDS011;45266;48.756;9.246;2022-11-30T01:46:48;35.20;;;22.27;;
55647;SDS011;45266;48.756;9.246;2022-11-30T01:48:32;39.03;;;22.30;;
55647;SDS011;45266;48.756;9.246;2022-11-30T01:49:48;35.13;;;22.20;;
55647;SDS011;45266;48.756;9.246;2022-11-30T01:51:26;38.43;;;22.37;;
55647;SDS011;45266;48.756;9.246;2022-11-30T01:52:47;35.50;;;22.03;;
55647;SDS011;45266;48.756;9.246;2022-11-30T01:54:19;31.97;;;21.50;;
55647;SDS011;45266;48.756;9.246;2022-11-30T01:56:03;34.80;;;21.37;;
55647;SDS011;45266;48.756;9.246;2022-11-30T01:57:19;38.63;;;22.17;;
55647;SDS011;45266;48.756;9.246;2022-11-30T01:58:40;33.47;;;20.93;;
55647;SDS011;45266;48.756;9.246;2022-11-30T01:59:53;36.43;;;22.07;;
55647;SDS011;45266;48.756;9.246;2022-11-30T02:01:07;33.63;;;20.77;;
55647;SDS011;45266;48.756;9.246;2022-11-30T02:02:36;37.60;;;22.87;;
55647;SDS011;45266;48.756;9.246;2022-11-30T02:04:22;34.80;;;22.47;;
55647;SDS011;45266;48.756;9.246;2022-11-30T02:05:25;33.90;;;21.70;;
55647;SDS011;45266;48.756;9.246;2022-11-30T02:07:12;37.07;;;21.90;;
55647;SDS011;45266;48.756;9.246;2022-11-30T02:08:35;38.20;;;21.57;;
55647;SDS011;45266;48.756;9.246;2022-11-30T02:09:59;33.47;;;22.10;;
55647;SDS011;45266;48.756;9.246;2022-11-30T02:11:45;34.30;;;20.73;;
55647;SDS011;45266;48.756;9.246;2022-11-30T02:15:02;38.87;;;21.80;;
55647;SDS011;45266;48.756;9.246;2022-11-30T02:18:23;39.17;;;21.83;;
55647;SDS011;45266;48.756;9.246;2022-11-30T02:21:57;34.73;;;22.00;;
55647;SDS011;45266;48.756;9.246;2022-11-30T02:29:48;37.70;;;20.80;;
55647;SDS011;45266;48.756;9.246;2022-11-30T02:31:10;35.03;;;20.67;;
55647;SDS011;45266;48.756;9.246;2022-11-30T02:32:43;35.07;;;21.93;;
55647;SDS011;45266;48.756;9.246;2022-11-30T02:34:13;34.80;;;21.07;;
55647;SDS011;45266;48.756;9.246;2022-11-30T02:35:45;33.90;;;20.47;;
55647;SDS011;45266;48.756;9.246;2022-11-30T02:36:56;38.20;;;21.87;;
55647;SDS011;45266;48.756;9.246;2022-11-30T02:38:23;34.73;;;21.93;;
55647;SDS011;45266;48.756;9.246;2022-11-30T02:39:41;34.10;;;21.57;;
55647;SDS011;45266;48.756;9.246;2022-11-30T02:41:04;32.00;;;20.50;;
55647;SDS011;45266;48.756;9.246;2022-11-30T02:42:39;37.50;;;20.67;;
55647;SDS011;45266;48.756;9.246;2022-11-30T02:43:56;34.83;;;20.97;;
55647;SDS011;45266;48.756;9.246;2022-11-30T02:45:14;38.50;;;21.17;;
55647;SDS011;45266;48.756;9.246;2022-11-30T02:50:59;39.03;;;23.33;;
55647;SDS011;45266;48.756;9.246;2022-11-30T02:52:13;36.97;;;22.57;;
55647;SDS011;45266;48.756;9.246;2022-11-30T02:53:41;34.23;;;20.43;;
55647;SDS011;45266;48.756;9.246;2022-11-30T02:54:48;35.27;;;20.97;;
55647;SDS011;45266;48.756;9.246;2022-11-30T02:56:03;36.53;;;21.13;;
55647;SDS011;45266;48.756;9.246;2022-11-30T02:57:06;36.37;;;20.93;;
55647;SDS011;45266;48.756;9.246;2022-11-30T02:58:15;33.60;;;21.20;;
55647;SDS011;45266;48.756;9.246;2022-11-30T02:59:31;36.17;;;21.20;;
55647;SDS011;45266;48.756;9.246;2022-11-30T03:00:43;35.10;;;21.00;;
55647;SDS011;45266;48.756;9.246;2022-11-30T03:01:47;40.30;;;22.70;;
55647;SDS011;45266;48.756;9.246;2022-11-30T03:02:52;37.67;;;22.20;;
55647;SDS011;45266;48.756;9.246;2022-11-30T03:04:02;33.90;;;21.73;;
55647;SDS011;45266;48.756;9.246;2022-11-30T03:05:10;35.90;;;22.63;;
55647;SDS011;45266;48.756;9.246;2022-11-30T03:06:27;35.83;;;21.33;;
55647;SDS011;45266;48.756;9.246;2022-11-30T03:07:35;36.07;;;21.90;;
55647;SDS011;45266;48.756;9.246;2022-11-30T03:08:46;32.83;;;20.83;;
55647;SDS011;45266;48.756;9.246;2022-11-30T03:11:17;35.10;;;20.90;;
55647;SDS011;45266;48.756;9.246;2022-11-30T03:12:24;33.57;;;20.57;;
55647;SDS011;45266;48.756;9.246;2022-11-30T03:13:41;35.27;;;22.03;;
55647;SDS011;45266;48.756;9.246;2022-11-30T03:14:56;35.33;;;20.60;;
55647;SDS011;45266;48.756;9.246;2022-11-30T03:16:12;34.50;;;21.27;;
55647;SDS011;45266;48.756;9.246;2022-11-30T03:17:27;32.57;;;20.13;;
55647;SDS011;45266;48.756;9.246;2022-11-30T03:18:43;30.70;;;20.47;;
55647;SDS011;45266;48.756;9.246;2022-11-30T03:19:50;37.07;;;21.33;;
55647;SDS011;45266;48.756;9.246;2022-11-30T03:21:16;37.87;;;21.43;;
55647;SDS011;45266;48.756;9.246;2022-11-30T03:22:27;30.52;;;19.88;;
55647;SDS011;45266;48.756;9.246;2022-11-30T03:23:42;34.47;;;20.97;;
55647;SDS011;45266;48.756;9.246;2022-11-30T03:25:20;35.20;;;21.30;;
55647;SDS011;45266;48.756;9.246;2022-11-30T03:28:10;33.27;;;20.83;;
55647;SDS011;45266;48.756;9.246;2022-11-30T03:29:14;36.73;;;20.77;;
55647;SDS011;45266;48.756;9.246;2022-11-30T03:30:21;35.50;;;21.50;;
55647;SDS011;45266;48.756;9.246;2022-11-30T03:31:32;34.30;;;19.97;;
55647;SDS011;45266;48.756;9.246;2022-11-30T03:32:42;32.83;;;20.83;;
55647;SDS011;45266;48.756;9.246;2022-11-30T03:33:55;34.30;;;21.27;;
55647;SDS011;45266;48.756;9.246;2022-11-30T03:35:03;35.87;;;21.43;;
55647;SDS011;45266;48.756;9.246;2022-11-30T03:37:43;32.50;;;21.20;;
55647;SDS011;45266;48.756;9.246;2022-11-30T03:38:59;31.07;;;21.07;;
55647;SDS011;45266;48.756;9.246;2022-11-30T03:40:17;33.57;;;20.87;;
55647;SDS011;45266;48.756;9.246;2022-11-30T03:41:29;36.37;;;20.97;;
55647;SDS011;45266;48.756;9.246;2022-11-30T03:42:33;32.27;;;20.33;;
55647;SDS011;45266;48.756;9.246;2022-11-30T03:43:36;32.97;;;20.60;;
55647;SDS011;45266;48.756;9.246;2022-11-30T03:44:50;33.80;;;20.37;;
55647;SDS011;45266;48.756;9.246;2022-11-30T03:46:00;33.47;;;20.20;;
55647;SDS011;45266;48.756;9.246;2022-11-30T03:47:17;29.77;;;19.00;;
55647;SDS011;45266;48.756;9.246;2022-11-30T03:49:54;30.43;;;19.90;;
55647;SDS011;45266;48.756;9.246;2022-11-30T03:51:09;34.93;;;20.53;;
55647;SDS011;45266;48.756;9.246;2022-11-30T03:52:14;30.10;;;19.67;;
55647;SDS011;45266;48.756;9.246;2022-11-30T03:53:20;34.33;;;20.90;;
55647;SDS011;45266;48.756;9.246;2022-11-30T03:54:28;28.83;;;18.93;;
55647;SDS011;45266;48.756;9.246;2022-11-30T03:55:36;34.73;;;20.90;;
55647;SDS011;45266;48.756;9.246;2022-11-30T03:56:40;30.57;;;19.47;;
55647;SDS011;45266;48.756;9.246;2022-11-30T03:57:43;32.50;;;20.27;;
55647;SDS011;45266;48.756;9.246;2022-11-30T03:58:49;32.57;;;20.13;;
55647;SDS011;45266;48.756;9.246;2022-11-30T04:00:06;29.10;;;19.33;;
55647;SDS011;45266;48.756;9.246;2022-11-30T04:01:20;32.27;;;20.07;;
55647;SDS011;45266;48.756;9.246;2022-11-30T04:02:47;30.37;;;19.23;;
55647;SDS011;45266;48.756;9.246;2022-11-30T04:03:55;31.63;;;19.37;;
55647;SDS011;45266;48.756;9.246;2022-11-30T04:05:31;30.73;;;19.07;;
55647;SDS011;45266;48.756;9.246;2022-11-30T04:06:34;30.40;;;20.17;;
55647;SDS011;45266;48.756;9.246;2022-11-30T04:07:45;31.53;;;19.07;;
55647;SDS011;45266;48.756;9.246;2022-11-30T04:11:24;30.93;;;19.47;;
55647;SDS011;45266;48.756;9.246;2022-11-30T04:12:26;33.27;;;20.77;;
55647;SDS011;45266;48.756;9.246;2022-11-30T04:13:28;33.63;;;19.60;;
55647;SDS011;45266;48.756;9.246;2022-11-30T04:14:31;31.57;;;20.87;;
55647;SDS011;45266;48.756;9.246;2022-11-30T04:15:32;31.70;;;20.20;;
55647;SDS011;45266;48.756;9.246;2022-11-30T04:16:34;33.03;;;20.60;;
55647;SDS011;45266;48.756;9.246;2022-11-30T04:17:36;31.07;;;19.13;;
55647;SDS011;45266;48.756;9.246;2022-11-30T04:18:38;33.50;;;21.33;;
55647;SDS011;45266;48.756;9.246;2022-11-30T04:19:40;33.77;;;20.67;;
55647;SDS011;45266;48.756;9.246;2022-11-30T04:20:42;31.77;;;19.73;;
55647;SDS011;45266;48.756;9.246;2022-11-30T04:21:44;31.70;;;20.23;;
55647;SDS011;45266;48.756;9.246;2022-11-30T04:22:46;29.63;;;19.10;;
55647;SDS011;45266;48.756;9.246;2022-11-30T04:23:47;28.40;;;18.90;;
55647;SDS011;45266;48.756;9.246;2022-11-30T04:24:49;32.17;;;19.60;;
55647;SDS011;45266;48.756;9.246;2022-11-30T04:25:51;31.13;;;19.97;;
55647;SDS011;45266;48.756;9.246;2022-11-30T04:26:52;33.13;;;20.37;;
55647;SDS011;45266;48.756;9.246;2022-11-30T04:27:54;31.23;;;18.73;;
55647;SDS011;45266;48.756;9.246;2022-11-30T04:28:56;29.65;;;18.48;;
55647;SDS011;45266;48.756;9.246;2022-11-30T04:29:58;28.70;;;18.83;;
55647;SDS011;45266;48.756;9.246;2022-11-30T04:30:59;27.83;;;18.57;;
55647;SDS011;45266;48.756;9.246;2022-11-30T04:32:02;28.30;;;17.90;;
55647;SDS011;45266;48.756;9.246;2022-11-30T04:33:04;32.13;;;20.03;;
55647;SDS011;45266;48.756;9.246;2022-11-30T04:34:06;32.73;;;20.37;;
55647;SDS011;45266;48.756;9.246;2022-11-30T04:35:08;27.60;;;19.20;;
55647;SDS011;45266;48.756;9.246;2022-11-30T04:36:17;32.17;;;19.27;;
55647;SDS011;45266;48.756;9.246;2022-11-30T04:37:20;32.93;;;19.40;;
55647;SDS011;45266;48.756;9.246;2022-11-30T04:38:22;29.33;;;19.10;;
55647;SDS011;45266;48.756;9.246;2022-11-30T04:39:24;28.67;;;18.43;;
55647;SDS011;45266;48.756;9.246;2022-11-30T04:40:26;33.33;;;19.17;;
55647;SDS011;45266;48.756;9.246;2022-11-30T04:41:28;32.70;;;19.47;;
55647;SDS011;45266;48.756;9.246;2022-11-30T04:42:29;30.17;;;19.20;;
55647;SDS011;45266;48.756;9.246;2022-11-30T04:43:31;30.30;;;18.70;;
55647;SDS011;45266;48.756;9.246;2022-11-30T04:44:33;26.83;;;18.07;;
55647;SDS011;45266;48.756;9.246;2022-11-30T04:45:36;30.90;;;18.57;;
55647;SDS011;45266;48.756;9.246;2022-11-30T04:46:38;28.70;;;18.47;;
55647;SDS011;45266;48.756;9.246;2022-11-30T04:47:40;29.63;;;18.70;;
55647;SDS011;45266;48.756;9.246;2022-11-30T04:48:42;27.30;;;17.93;;
55647;SDS011;45266;48.756;9.246;2022-11-30T04:49:44;26.23;;;17.40;;
55647;SDS011;45266;48.756;9.246;2022-11-30T04:50:45;25.87;;;17.97;;
55647;SDS011;45266;48.756;9.246;2022-11-30T04:51:47;28.93;;;19.07;;
55647;SDS011;45266;48.756;9.246;2022-11-30T04:52:49;29.17;;;18.33;;
55647;SDS011;45266;48.756;9.246;2022-11-30T04:53:51;29.47;;;18.37;;
55647;SDS011;45266;48.756;9.246;2022-11-30T04:54:52;24.42;;;17.15;;
55647;SDS011;45266;48.756;9.246;2022-11-30T04:55:55;25.73;;;17.53;;
55647;SDS011;45266;48.756;9.246;2022-11-30T04:56:57;29.67;;;18.03;;
55647;SDS011;45266;48.756;9.246;2022-11-30T04:57:59;27.67;;;18.57;;
55647;SDS011;45266;48.756;9.246;2022-11-30T04:59:01;27.67;;;18.00;;
55647;SDS011;45266;48.756;9.246;2022-11-30T05:00:03;28.00;;;18.03;;
55647;SDS011;45266;48.756;9.246;2022-11-30T05:01:06;27.53;;;18.00;;
55647;SDS011;45266;48.756;9.246;2022-11-30T05:02:09;27.33;;;18.10;;
55647;SDS011;45266;48.756;9.246;2022-11-30T05:03:10;25.27;;;16.73;;
55647;SDS011;45266;48.756;9.246;2022-11-30T05:04:12;26.30;;;16.70;;
55647;SDS011;45266;48.756;9.246;2022-11-30T05:05:14;29.63;;;17.73;;
55647;SDS011;45266;48.756;9.246;2022-11-30T05:06:16;27.93;;;17.83;;
55647;SDS011;45266;48.756;9.246;2022-11-30T05:07:18;30.33;;;19.30;;
55647;SDS011;45266;48.756;9.246;2022-11-30T05:08:20;30.77;;;18.33;;
55647;SDS011;45266;48.756;9.246;2022-11-30T05:09:22;29.43;;;19.00;;
55647;SDS011;45266;48.756;9.246;2022-11-30T05:10:24;31.40;;;18.70;;
55647;SDS011;45266;48.756;9.246;2022-11-30T05:11:26;28.63;;;17.97;;
55647;SDS011;45266;48.756;9.246;2022-11-30T05:12:28;28.37;;;18.00;;
55647;SDS011;45266;48.756;9.246;2022-11-30T05:13:30;28.73;;;18.10;;
55647;SDS011;45266;48.756;9.246;2022-11-30T05:14:31;28.20;;;17.90;;
55647;SDS011;45266;48.756;9.246;2022-11-30T05:15:33;32.00;;;18.97;;
55647;SDS011;45266;48.756;9.246;2022-11-30T05:16:35;32.80;;;18.70;;
55647;SDS011;45266;48.756;9.246;2022-11-30T05:17:37;32.97;;;19.43;;
55647;SDS011;45266;48.756;9.246;2022-11-30T05:18:39;30.33;;;18.57;;
55647;SDS011;45266;48.756;9.246;2022-11-30T05:19:41;30.07;;;18.23;;
55647;SDS011;45266;48.756;9.246;2022-11-30T05:20:46;29.23;;;18.83;;
55647;SDS011;45266;48.756;9.246;2022-11-30T05:21:48;31.60;;;18.67;;
55647;SDS011;45266;48.756;9.246;2022-11-30T05:22:50;31.00;;;18.63;;
55647;SDS011;45266;48.756;9.246;2022-11-30T05:23:52;29.33;;;18.87;;
55647;SDS011;45266;48.756;9.246;2022-11-30T05:24:54;32.13;;;19.43;;
55647;SDS011;45266;48.756;9.246;2022-11-30T05:25:56;31.37;;;19.37;;
55647;SDS011;45266;48.756;9.246;2022-11-30T05:26:58;31.03;;;20.13;;
55647;SDS011;45266;48.756;9.246;2022-11-30T05:28:00;30.37;;;19.93;;
55647;SDS011;45266;48.756;9.246;2022-11-30T05:29:02;33.60;;;20.83;;
55647;SDS011;45266;48.756;9.246;2022-11-30T05:30:05;34.40;;;19.43;;
55647;SDS011;45266;48.756;9.246;2022-11-30T05:31:07;32.90;;;19.40;;
55647;SDS011;45266;48.756;9.246;2022-11-30T05:32:09;30.70;;;19.77;;
55647;SDS011;45266;48.756;9.246;2022-11-30T05:33:11;30.93;;;18.97;;
55647;SDS011;45266;48.756;9.246;2022-11-30T05:34:13;33.70;;;19.97;;
55647;SDS011;45266;48.756;9.246;2022-11-30T05:35:15;34.23;;;19.83;;
55647;SDS011;45266;48.756;9.246;2022-11-30T05:36:16;27.97;;;18.30;;
55647;SDS011;45266;48.756;9.246;2022-11-30T05:37:18;30.57;;;18.30;;
55647;SDS011;45266;48.756;9.246;2022-11-30T05:38:20;28.83;;;18.33;;
55647;SDS011;45266;48.756;9.246;2022-11-30T05:39:22;32.53;;;19.37;;
55647;SDS011;45266;48.756;9.246;2022-11-30T05:40:24;30.10;;;18.27;;
55647;SDS011;45266;48.756;9.246;2022-11-30T05:41:28;33.03;;;19.00;;
55647;SDS011;45266;48.756;9.246;2022-11-30T05:42:29;29.23;;;18.27;;
55647;SDS011;45266;48.756;9.246;2022-11-30T05:43:31;30.73;;;20.05;;
55647;SDS011;45266;48.756;9.246;2022-11-30T05:44:33;29.27;;;19.13;;
55647;SDS011;45266;48.756;9.246;2022-11-30T05:45:34;29.50;;;18.87;;
55647;SDS011;45266;48.756;9.246;2022-11-30T05:46:36;30.13;;;19.00;;
55647;SDS011;45266;48.756;9.246;2022-11-30T05:47:41;30.13;;;19.27;;
55647;SDS011;45266;48.756;9.246;2022-11-30T05:48:43;25.83;;;17.97;;
55647;SDS011;45266;48.756;9.246;2022-11-30T05:49:44;29.90;;;18.97;;
55647;SDS011;45266;48.756;9.246;2022-11-30T05:50:47;29.37;;;18.83;;
55647;SDS011;45266;48.756;9.246;2022-11-30T05:51:48;29.65;;;18.77;;
55647;SDS011;45266;48.756;9.246;2022-11-30T05:52:53;29.97;;;18.63;;
55647;SDS011;45266;48.756;9.246;2022-11-30T05:54:00;29.40;;;18.10;;
55647;SDS011;45266;48.756;9.246;2022-11-30T05:55:02;31.70;;;18.83;;
55647;SDS011;45266;48.756;9.246;2022-11-30T05:56:05;30.57;;;19.67;;
55647;SDS011;45266;48.756;9.246;2022-11-30T05:57:08;34.33;;;20.03;;
55647;SDS011;45266;48.756;9.246;2022-11-30T05:58:10;30.77;;;19.30;;
55647;SDS011;45266;48.756;9.246;2022-11-30T05:59:12;33.90;;;19.97;;
55647;SDS011;45266;48.756;9.246;2022-11-30T06:00:14;29.73;;;18.37;;
55647;SDS011;45266;48.756;9.246;2022-11-30T06:01:23;30.00;;;18.20;;
55647;SDS011;45266;48.756;9.246;2022-11-30T06:02:27;30.63;;;18.67;;
55647;SDS011;45266;48.756;9.246;2022-11-30T06:03:29;27.53;;;17.60;;
55647;SDS011;45266;48.756;9.246;2022-11-30T06:04:33;29.87;;;17.40;;
55647;SDS011;45266;48.756;9.246;2022-11-30T06:05:35;32.20;;;17.93;;
55647;SDS011;45266;48.756;9.246;2022-11-30T06:06:36;28.77;;;18.00;;
55647;SDS011;45266;48.756;9.246;2022-11-30T06:07:39;32.67;;;19.90;;
55647;SDS011;45266;48.756;9.246;2022-11-30T06:08:41;28.93;;;18.13;;
55647;SDS011;45266;48.756;9.246;2022-11-30T06:09:43;26.73;;;17.57;;
55647;SDS011;45266;48.756;9.246;2022-11-30T06:10:45;27.80;;;18.47;;
55647;SDS011;45266;48.756;9.246;2022-11-30T06:11:47;31.33;;;19.07;;
55647;SDS011;45266;48.756;9.246;2022-11-30T06:12:49;27.67;;;17.93;;
55647;SDS011;45266;48.756;9.246;2022-11-30T06:13:51;27.53;;;17.67;;
55647;SDS011;45266;48.756;9.246;2022-11-30T06:14:53;27.97;;;18.43;;
55647;SDS011;45266;48.756;9.246;2022-11-30T06:15:57;28.30;;;18.00;;
55647;SDS011;45266;48.756;9.246;2022-11-30T06:17:00;30.03;;;18.03;;
55647;SDS011;45266;48.756;9.246;2022-11-30T06:18:02;28.20;;;17.50;;
55647;SDS011;45266;48.756;9.246;2022-11-30T06:19:04;28.13;;;17.47;;
55647;SDS011;45266;48.756;9.246;2022-11-30T06:20:06;29.67;;;17.97;;
55647;SDS011;45266;48.756;9.246;2022-11-30T06:21:10;26.90;;;16.73;;
55647;SDS011;45266;48.756;9.246;2022-11-30T06:22:12;28.27;;;18.10;;
55647;SDS011;45266;48.756;9.246;2022-11-30T06:23:14;28.90;;;17.67;;
55647;SDS011;45266;48.756;9.246;2022-11-30T06:24:15;28.13;;;18.33;;
55647;SDS011;45266;48.756;9.246;2022-11-30T06:25:17;27.40;;;17.50;;
55647;SDS011;45266;48.756;9.246;2022-11-30T06:26:19;29.27;;;18.63;;
55647;SDS011;45266;48.756;9.246;2022-11-30T06:27:21;32.70;;;18.87;;
55647;SDS011;45266;48.756;9.246;2022-11-30T06:28:23;33.40;;;19.10;;
55647;SDS011;45266;48.756;9.246;2022-11-30T06:29:25;29.43;;;17.53;;
55647;SDS011;45266;48.756;9.246;2022-11-30T06:30:27;30.97;;;19.60;;
55647;SDS011;45266;48.756;9.246;2022-11-30T06:31:29;28.77;;;18.43;;
55647;SDS011;45266;48.756;9.246;2022-11-30T06:32:31;31.30;;;18.67;;
55647;SDS011;45266;48.756;9.246;2022-11-30T06:33:33;26.43;;;18.23;;
55647;SDS011;45266;48.756;9.246;2022-11-30T06:34:36;35.93;;;21.10;;
55647;SDS011;45266;48.756;9.246;2022-11-30T06:35:43;31.20;;;19.33;;
55647;SDS011;45266;48.756;9.246;2022-11-30T06:36:46;29.70;;;18.00;;
55647;SDS011;45266;48.756;9.246;2022-11-30T06:37:48;32.87;;;20.70;;
55647;SDS011;45266;48.756;9.246;2022-11-30T06:38:50;29.87;;;19.30;;
55647;SDS011;45266;48.756;9.246;2022-11-30T06:39:52;30.40;;;19.20;;
55647;SDS011;45266;48.756;9.246;2022-11-30T06:41:09;35.20;;;19.97;;
55647;SDS011;45266;48.756;9.246;2022-11-30T06:42:12;27.57;;;18.33;;
55647;SDS011;45266;48.756;9.246;2022-11-30T06:43:14;31.10;;;20.33;;
55647;SDS011;45266;48.756;9.246;2022-11-30T06:44:16;30.40;;;20.67;;
55647;SDS011;45266;48.756;9.246;2022-11-30T06:45:18;30.93;;;19.50;;
55647;SDS011;45266;48.756;9.246;2022-11-30T06:46:19;30.80;;;19.70;;
55647;SDS011;45266;48.756;9.246;2022-11-30T06:47:22;31.03;;;18.73;;
55647;SDS011;45266;48.756;9.246;2022-11-30T06:48:24;30.30;;;18.00;;
55647;SDS011;45266;48.756;9.246;2022-11-30T06:49:26;28.43;;;18.43;;
55647;SDS011;45266;48.756;9.246;2022-11-30T06:50:28;28.87;;;17.90;;
55647;SDS011;45266;48.756;9.246;2022-11-30T06:51:30;27.80;;;18.20;;
55647;SDS011;45266;48.756;9.246;2022-11-30T06:52:31;27.30;;;17.53;;
55647;SDS011;45266;48.756;9.246;2022-11-30T06:53:34;29.17;;;18.50;;
55647;SDS011;45266;48.756;9.246;2022-11-30T06:54:36;28.70;;;17.10;;
55647;SDS011;45266;48.756;9.246;2022-11-30T06:55:38;27.20;;;17.67;;
55647;SDS011;45266;48.756;9.246;2022-11-30T06:56:39;25.40;;;16.77;;
55647;SDS011;45266;48.756;9.246;2022-11-30T06:57:41;28.00;;;17.40;;
55647;SDS011;45266;48.756;9.246;2022-11-30T06:58:43;27.97;;;17.33;;
55647;SDS011;45266;48.756;9.246;2022-11-30T06:59:45;26.60;;;17.87;;
55647;SDS011;45266;48.756;9.246;2022-11-30T07:00:47;26.47;;;16.83;;
55647;SDS011;45266;48.756;9.246;2022-11-30T07:01:49;26.67;;;16.60;;
55647;SDS011;45266;48.756;9.246;2022-11-30T07:02:51;25.87;;;16.60;;
55647;SDS011;45266;48.756;9.246;2022-11-30T07:03:52;27.87;;;16.70;;
55647;SDS011;45266;48.756;9.246;2022-11-30T07:04:55;27.83;;;17.30;;
55647;SDS011;45266;48.756;9.246;2022-11-30T07:05:56;26.70;;;16.53;;
55647;SDS011;45266;48.756;9.246;2022-11-30T07:06:58;26.93;;;15.83;;
55647;SDS011;45266;48.756;9.246;2022-11-30T07:08:00;24.17;;;16.27;;
55647;SDS011;45266;48.756;9.246;2022-11-30T07:09:02;22.27;;;15.83;;
55647;SDS011;45266;48.756;9.246;2022-11-30T07:10:04;25.87;;;16.07;;
55647;SDS011;45266;48.756;9.246;2022-11-30T07:11:07;24.00;;;16.17;;
55647;SDS011;45266;48.756;9.246;2022-11-30T07:12:09;23.70;;;15.57;;
55647;SDS011;45266;48.756;9.246;2022-11-30T07:13:12;24.40;;;17.03;;
55647;SDS011;45266;48.756;9.246;2022-11-30T07:14:15;25.50;;;16.63;;
55647;SDS011;45266;48.756;9.246;2022-11-30T07:15:17;27.33;;;16.33;;
55647;SDS011;45266;48.756;9.246;2022-11-30T07:16:18;27.03;;;17.20;;
55647;SDS011;45266;48.756;9.246;2022-11-30T07:17:20;27.60;;;17.07;;